Lithopolis, OH (43136)

11:16 AM EDT on April 19, 2015 (GMT -0400)
OHDOT | | Change Station
CLOSE
Current Station
Personal Weather Station
Location: Canal Winchester, OH
Elevation: 796 ft
Nearby Weather Stations

Elev 796 ft 39.84 °N, 82.77 °W | Updated 26 minutes ago

Mostly Cloudy
Mostly Cloudy
72 °F
Feels Like 77 °F
N
7
Wind Variable Wind from East
Gusts 16.0 mph

Today
High -- | Low -- °F
--% Chance of Precip.
Yesterday
High -- | Low -- °F
Precip. -- in
6:48 AM 8:13 PM
New Moon, 1% visible
Pressure 29.83 in
Visibility 10.0 miles
Clouds Scattered Clouds 12000 ft
Heat Index 77 °F
Dew Point 50 °F
Humidity 46%
Rainfall in
Snow Depth Not available.
UV 5 out of 12
Pollen 5.70 out of 12
Air Quality Not available.
Flu Activity Regional
METAR KLCK 191455Z AUTO 12014G21KT 10SM SCT120 21/12 A2983 RMK AO2 T02140115

More Conditions Fewer Conditions

Pressure 29.83 in
Visibility 10.0 miles
Clouds Scattered Clouds 12000 ft
Heat Index 77 °F
Dew Point 50 °F
Humidity 46%
Rainfall in
Snow Depth Not available.
UV 5 out of 12
Pollen 5.70 out of 12
Air Quality Not available.
Flu Activity Regional
METAR KLCK 191455Z AUTO 12014G21KT 10SM SCT120 21/12 A2983 RMK AO2 T02140115

More Conditions Fewer Conditions

10-Day Weather Forecast

Almanac

Astronomy

Apr. 19, 2015 Rise Set
Actual Time
Civil Twilight
Nautical Twilight
Astronomical Twilight
Moon
Length of Visible Light
Length of Day
Tomorrow will be .
, % of the Moon is Illuminated

Today's Extremes

State Highs State Lows

Community

WunderPhotos

Upload Photos

1,814,832 photos uploaded!

WunderBlogs® & News

Nearby

Air Quality

  Air Quality AQ Index Pollutant
Not available.

Snow Depth

Station Depth Elevation

Earthquake Activity

City Distance Mag. Time & Date
Minimum magnitude displayed is 2.5.

Coastal Water Temperatures

Place Temperature

Stations

Nearby Weather Stations

Station Location Temp. Windchill Dew Point Humidity Wind Precip. Elev Updated Type